Time;durP1;ratioP1;P1;durP2;ratioP2;P2;SDS_P1;SDS_P2;PMS_P1;PMS_P2;Temp;Humidity;BMP_temperature;BMP_pressure;BME280_temperature;BME280_humidity;BME280_pressure;Samples;Min_cycle;Max_cycle;Signal;HPM_P1;HPM_P2
2021/09/28 00:00:28;;;;;;;0.40;0.20;;;13.50;99.90;;;;;;5050029;28;20744;-81
2021/09/28 00:02:54;;;;;;;0.40;0.20;;;13.60;99.90;;;;;;5050984;28;20386;-81
2021/09/28 00:05:20;;;;;;;0.40;0.20;;;13.60;99.90;;;;;;5050080;28;20473;-81
2021/09/28 00:07:45;;;;;;;0.40;0.20;;;13.60;99.90;;;;;;5032656;28;20389;-81
2021/09/28 00:10:11;;;;;;;0.40;0.20;;;13.50;99.90;;;;;;5050006;28;20465;-81
2021/09/28 00:12:37;;;;;;;0.40;0.20;;;13.50;99.90;;;;;;5050526;28;20880;-81
2021/09/28 00:15:06;;;;;;;0.40;0.30;;;13.40;99.90;;;;;;5032640;28;20508;-81
2021/09/28 00:17:31;;;;;;;0.40;0.20;;;13.40;99.90;;;;;;5049882;28;20421;-81
2021/09/28 00:19:59;;;;;;;0.40;0.20;;;13.30;99.90;;;;;;5034309;28;20446;-82
2021/09/28 00:22:24;;;;;;;0.40;0.20;;;13.50;99.90;;;;;;5053539;28;20455;-81
2021/09/28 00:24:50;;;;;;;0.40;0.20;;;13.40;99.90;;;;;;5053851;28;20386;-80
2021/09/28 00:27:16;;;;;;;0.40;0.20;;;13.50;99.90;;;;;;5053868;28;20394;-80
2021/09/28 00:29:42;;;;;;;0.40;0.40;;;13.30;99.90;;;;;;5054395;28;20385;-80
2021/09/28 00:32:08;;;;;;;0.40;0.20;;;13.30;99.90;;;;;;5053940;28;20564;-80
2021/09/28 00:34:39;;;;;;;0.40;0.20;;;13.30;99.90;;;;;;5053677;28;20366;-80
2021/09/28 00:37:05;;;;;;;0.40;0.30;;;13.20;99.90;;;;;;5036172;28;20409;-80
2021/09/28 00:39:31;;;;;;;0.40;0.20;;;13.20;99.90;;;;;;5053282;28;20742;-80
2021/09/28 00:41:57;;;;;;;0.40;0.20;;;13.20;99.90;;;;;;5054325;28;20393;-80
2021/09/28 00:44:37;;;;;;;0.40;0.20;;;13.20;99.90;;;;;;5053423;28;20449;-79
2021/09/28 00:47:03;;;;;;;0.40;0.30;;;13.20;99.90;;;;;;5036300;28;20434;-79
2021/09/28 00:49:29;;;;;;;0.40;0.20;;;13.10;99.90;;;;;;5053479;28;20427;-80
2021/09/28 00:51:55;;;;;;;0.40;0.30;;;13.20;99.90;;;;;;5053927;28;20465;-79
2021/09/28 00:54:21;;;;;;;0.40;0.30;;;13.10;99.90;;;;;;5053322;28;20385;-79
2021/09/28 00:56:47;;;;;;;0.40;0.20;;;13.00;99.90;;;;;;5054000;28;20413;-79
2021/09/28 00:59:13;;;;;;;0.40;0.30;;;13.00;99.90;;;;;;5035104;28;20408;-78
2021/09/28 01:01:39;;;;;;;0.40;0.30;;;13.00;99.90;;;;;;5053346;28;20381;-78
2021/09/28 01:04:05;;;;;;;0.40;0.20;;;13.00;99.90;;;;;;5035920;28;20431;-79
2021/09/28 01:06:31;;;;;;;0.40;0.30;;;12.90;99.90;;;;;;5052241;28;20396;-79
2021/09/28 01:08:57;;;;;;;0.40;0.20;;;13.00;99.90;;;;;;5016140;28;20482;-78
2021/09/28 01:11:23;;;;;;;0.40;0.20;;;12.90;99.90;;;;;;5033313;28;20371;-78
2021/09/28 01:13:48;;;;;;;0.40;0.20;;;12.80;99.90;;;;;;5033334;28;20387;-78
2021/09/28 01:16:14;;;;;;;0.40;0.20;;;12.80;99.90;;;;;;5014951;28;20411;-78
2021/09/28 01:18:41;;;;;;;0.40;0.20;;;12.70;99.90;;;;;;5033499;28;20433;-78
2021/09/28 01:21:10;;;;;;;0.40;0.20;;;12.80;99.90;;;;;;5033234;28;20391;-78
2021/09/28 01:23:38;;;;;;;0.40;0.20;;;12.60;99.90;;;;;;5015116;28;20488;-78
2021/09/28 01:26:04;;;;;;;0.40;0.30;;;12.50;99.90;;;;;;5015708;28;20469;-78
2021/09/28 01:28:29;;;;;;;0.40;0.20;;;12.40;99.90;;;;;;5032786;28;20391;-78
2021/09/28 01:31:13;;;;;;;0.40;0.20;;;12.50;99.90;;;;;;5031822;28;20382;-78
2021/09/28 01:33:39;;;;;;;0.40;0.20;;;12.40;99.90;;;;;;5033507;28;20383;-78
2021/09/28 01:36:05;;;;;;;0.40;0.20;;;12.30;99.90;;;;;;5033283;28;20465;-78
2021/09/28 01:38:32;;;;;;;0.40;0.20;;;12.20;99.90;;;;;;5014782;28;20397;-78
2021/09/28 01:40:58;;;;;;;0.40;0.20;;;12.20;99.90;;;;;;5033297;28;20444;-78
2021/09/28 01:43:33;;;;;;;0.40;0.20;;;12.10;99.90;;;;;;5032416;28;20387;-78
2021/09/28 01:46:01;;;;;;;0.40;0.20;;;12.20;99.90;;;;;;5015202;28;20435;-78
2021/09/28 01:48:41;;;;;;;0.40;0.20;;;12.00;99.90;;;;;;5032340;28;20478;-78
2021/09/28 01:51:06;;;;;;;0.40;0.20;;;12.00;99.90;;;;;;5032796;28;20482;-78
2021/09/28 01:53:32;;;;;;;0.40;0.20;;;12.00;99.90;;;;;;5014469;28;20482;-78
2021/09/28 01:55:58;;;;;;;0.40;0.20;;;11.90;99.90;;;;;;5032585;28;20907;-79
2021/09/28 01:58:24;;;;;;;0.40;0.20;;;12.10;99.90;;;;;;5014510;28;20410;-78
2021/09/28 02:00:50;;;;;;;0.40;0.20;;;12.00;99.90;;;;;;5015025;28;20508;-79
2021/09/28 02:03:18;;;;;;;0.40;0.20;;;11.90;99.90;;;;;;5032142;28;20390;-78
2021/09/28 02:05:44;;;;;;;0.40;0.20;;;11.90;99.90;;;;;;5032439;28;20468;-79
2021/09/28 02:08:10;;;;;;;0.40;0.20;;;12.00;99.90;;;;;;5028333;28;20421;-79
2021/09/28 02:10:36;;;;;;;0.40;0.20;;;11.90;99.90;;;;;;5033951;28;20728;-78
2021/09/28 02:13:02;;;;;;;0.40;0.20;;;11.80;99.90;;;;;;5052321;28;20708;-79
2021/09/28 02:15:28;;;;;;;0.40;0.30;;;11.80;99.90;;;;;;5051793;28;20381;-78
2021/09/28 02:17:54;;;;;;;0.40;0.20;;;11.90;99.90;;;;;;5051844;28;20467;-78
2021/09/28 02:20:20;;;;;;;0.40;0.30;;;11.80;99.90;;;;;;5051384;28;20412;-77
2021/09/28 02:22:45;;;;;;;0.40;0.20;;;11.70;99.90;;;;;;5052204;28;20381;-77
2021/09/28 02:25:13;;;;;;;0.40;0.20;;;11.70;99.90;;;;;;5051865;28;20400;-77
2021/09/28 02:27:42;;;;;;;0.40;0.20;;;11.70;99.90;;;;;;5033293;28;20452;-77
2021/09/28 02:30:08;;;;;;;0.40;0.20;;;11.70;99.90;;;;;;5051425;28;20865;-77
2021/09/28 02:32:34;;;;;;;0.40;0.30;;;11.70;99.90;;;;;;5032998;28;20933;-77
2021/09/28 02:35:00;;;;;;;0.40;0.30;;;11.70;99.90;;;;;;5033949;28;20480;-77
2021/09/28 02:37:26;;;;;;;0.40;0.20;;;11.70;99.90;;;;;;5050439;28;20882;-77
2021/09/28 02:39:51;;;;;;;0.40;0.20;;;11.60;99.90;;;;;;5051184;28;20443;-78
2021/09/28 02:42:17;;;;;;;0.40;0.20;;;11.70;99.90;;;;;;5050847;28;20465;-78
2021/09/28 02:44:43;;;;;;;0.40;0.20;;;11.60;99.90;;;;;;5051284;28;20374;-77
2021/09/28 02:47:09;;;;;;;0.40;0.20;;;11.50;99.90;;;;;;5033743;28;20397;-78
2021/09/28 02:49:35;;;;;;;0.40;0.20;;;11.40;99.90;;;;;;5050821;28;20905;-78
2021/09/28 02:52:01;;;;;;;0.40;0.20;;;11.40;99.90;;;;;;5033425;28;20432;-78
2021/09/28 02:54:27;;;;;;;0.40;0.20;;;11.40;99.90;;;;;;5050394;28;20386;-78
2021/09/28 02:56:52;;;;;;;0.40;0.20;;;11.40;99.90;;;;;;5051326;28;20877;-78
2021/09/28 02:59:18;;;;;;;0.40;0.20;;;11.30;99.90;;;;;;5051390;28;20794;-78
2021/09/28 03:01:45;;;;;;;0.40;0.20;;;11.40;99.90;;;;;;5033391;28;20382;-78
2021/09/28 03:04:11;;;;;;;0.40;0.20;;;11.30;99.90;;;;;;5033244;28;20417;-79
2021/09/28 03:06:36;;;;;;;0.40;0.30;;;11.30;99.90;;;;;;5031575;28;20452;-79
2021/09/28 03:09:02;;;;;;;0.40;0.20;;;11.30;99.90;;;;;;5031101;28;20418;-79
2021/09/28 03:11:28;;;;;;;0.40;0.20;;;11.30;99.90;;;;;;5030591;28;20462;-79
2021/09/28 03:13:54;;;;;;;0.40;0.20;;;11.30;99.90;;;;;;5013412;28;20484;-80
2021/09/28 03:16:21;;;;;;;0.40;0.30;;;11.20;99.90;;;;;;5030435;28;20418;-80
2021/09/28 03:18:47;;;;;;;0.40;0.20;;;11.20;99.90;;;;;;5030867;28;20391;-81
2021/09/28 03:21:12;;;;;;;0.40;0.20;;;11.20;99.90;;;;;;5013482;28;20394;-82
2021/09/28 03:23:38;;;;;;;0.40;0.20;;;11.20;99.90;;;;;;5030101;28;20426;-82
2021/09/28 03:26:03;;;;;;;0.40;0.20;;;11.30;99.90;;;;;;5012881;28;20419;-82
2021/09/28 03:28:31;;;;;;;0.40;0.20;;;11.30;99.90;;;;;;5030019;28;20383;-82
2021/09/28 03:30:57;;;;;;;0.40;0.20;;;11.20;99.90;;;;;;5013256;28;20784;-82
2021/09/28 03:33:23;;;;;;;0.40;0.20;;;11.10;99.90;;;;;;5030678;28;20427;-81
2021/09/28 03:35:49;;;;;;;0.40;0.30;;;11.00;99.90;;;;;;5030835;28;20414;-81
2021/09/28 03:38:14;;;;;;;0.40;0.20;;;11.10;99.90;;;;;;5013003;28;20390;-81
2021/09/28 03:40:40;;;;;;;0.40;0.20;;;11.10;99.90;;;;;;5029980;28;20379;-81
2021/09/28 03:43:09;;;;;;;0.40;0.20;;;11.00;99.90;;;;;;5030864;28;20473;-81
2021/09/28 03:45:35;;;;;;;0.40;0.20;;;11.00;99.90;;;;;;5030195;28;20441;-81
2021/09/28 03:48:01;;;;;;;0.40;0.30;;;11.10;99.90;;;;;;5013130;28;20813;-81
2021/09/28 03:50:27;;;;;;;0.40;0.30;;;11.10;99.90;;;;;;5012568;28;20421;-81
2021/09/28 03:52:53;;;;;;;0.40;0.20;;;11.00;99.90;;;;;;5013067;28;20790;-82
2021/09/28 03:55:19;;;;;;;0.40;0.20;;;11.10;99.90;;;;;;5033212;28;20919;-82
2021/09/28 03:57:47;;;;;;;0.40;0.20;;;11.10;99.90;;;;;;5016473;28;20472;-82
2021/09/28 04:00:26;;;;;;;0.40;0.30;;;11.00;99.90;;;;;;5034677;28;20751;-81
2021/09/28 04:02:51;;;;;;;0.40;0.27;;;11.00;99.90;;;;;;5034911;28;20424;-80
2021/09/28 04:05:17;;;;;;;0.40;0.20;;;10.90;99.90;;;;;;5035287;28;20702;-79
2021/09/28 04:07:45;;;;;;;0.40;0.20;;;11.00;99.90;;;;;;5026901;28;20900;-79
2021/09/28 04:10:12;;;;;;;0.40;0.20;;;11.00;99.90;;;;;;5054610;28;20444;-79
2021/09/28 04:12:38;;;;;;;0.40;0.20;;;11.00;99.90;;;;;;5036417;28;20779;-79
2021/09/28 04:15:05;;;;;;;0.40;0.20;;;11.10;99.90;;;;;;5054790;28;20385;-79
2021/09/28 04:17:31;;;;;;;0.40;0.20;;;11.10;99.90;;;;;;5054074;28;20405;-79
2021/09/28 04:19:57;;;;;;;0.40;0.30;;;11.00;99.90;;;;;;5036499;28;20512;-80
2021/09/28 04:22:23;;;;;;;0.40;0.20;;;11.00;99.90;;;;;;5036826;28;20441;-79
2021/09/28 04:24:49;;;;;;;0.40;0.30;;;11.00;99.90;;;;;;5054247;28;20373;-78
2021/09/28 04:27:17;;;;;;;0.40;0.20;;;10.90;99.90;;;;;;5036684;28;20476;-78
2021/09/28 04:29:42;;;;;;;0.40;0.20;;;11.00;99.90;;;;;;5054250;28;20377;-78
2021/09/28 04:32:08;;;;;;;0.40;0.20;;;11.00;99.90;;;;;;5036496;28;20788;-78
2021/09/28 04:34:34;;;;;;;0.40;0.30;;;11.00;99.90;;;;;;5035959;28;20389;-77
2021/09/28 04:37:00;;;;;;;0.40;0.20;;;10.90;99.90;;;;;;5036721;28;20409;-77
2021/09/28 04:39:26;;;;;;;0.40;0.20;;;10.90;99.90;;;;;;5035815;28;20393;-78
2021/09/28 04:41:52;;;;;;;0.40;0.30;;;10.90;99.90;;;;;;5054231;28;20829;-78
2021/09/28 04:44:17;;;;;;;0.70;0.70;;;11.00;99.90;;;;;;5054443;28;20390;-78
2021/09/28 04:46:44;;;;;;;0.40;0.20;;;10.90;99.90;;;;;;5035642;28;20445;-78
2021/09/28 04:49:10;;;;;;;0.40;0.20;;;10.90;99.90;;;;;;5036209;28;20802;-78
2021/09/28 04:51:36;;;;;;;0.40;0.30;;;10.90;99.90;;;;;;5053294;28;20377;-78
2021/09/28 04:54:04;;;;;;;0.50;0.50;;;10.90;99.90;;;;;;5053978;28;20381;-79
2021/09/28 04:56:30;;;;;;;0.40;0.20;;;10.80;99.90;;;;;;5053087;28;20428;-78
2021/09/28 04:58:56;;;;;;;0.40;0.20;;;10.80;99.90;;;;;;5053730;28;20734;-79
2021/09/28 05:01:22;;;;;;;0.40;0.30;;;10.70;99.90;;;;;;5053790;28;20382;-78
2021/09/28 05:03:47;;;;;;;0.40;0.22;;;10.70;99.90;;;;;;5035334;28;20393;-78
2021/09/28 05:06:14;;;;;;;0.40;0.20;;;10.60;99.90;;;;;;5053273;28;20850;-77
2021/09/28 05:08:40;;;;;;;0.40;0.20;;;10.50;99.90;;;;;;5035028;28;20410;-76
2021/09/28 05:11:10;;;;;;;0.40;0.30;;;10.60;99.90;;;;;;5033599;28;20395;-76
2021/09/28 05:13:35;;;;;;;0.40;0.20;;;10.60;99.90;;;;;;5033082;28;20387;-77
2021/09/28 05:16:01;;;;;;;0.40;0.30;;;10.50;99.90;;;;;;5033244;28;20759;-77
2021/09/28 05:18:27;;;;;;;0.40;0.30;;;10.50;99.90;;;;;;5033272;28;20390;-77
2021/09/28 05:20:52;;;;;;;0.40;0.20;;;10.50;99.90;;;;;;5032862;28;20396;-77
2021/09/28 05:23:18;;;;;;;0.40;0.20;;;10.50;99.90;;;;;;5015756;28;20387;-77
2021/09/28 05:25:43;;;;;;;0.40;0.30;;;10.50;99.90;;;;;;5032793;28;20493;-76
2021/09/28 05:28:09;;;;;;;0.40;0.20;;;10.40;99.90;;;;;;5033549;28;20931;-77
2021/09/28 05:30:35;;;;;;;0.40;0.30;;;10.40;99.90;;;;;;5014953;28;20395;-77
2021/09/28 05:33:01;;;;;;;0.40;0.30;;;10.50;99.90;;;;;;5033385;28;20433;-77
2021/09/28 05:35:27;;;;;;;0.40;0.20;;;10.40;99.90;;;;;;5032948;28;20850;-77
2021/09/28 05:37:53;;;;;;;0.40;0.20;;;10.50;99.90;;;;;;5032463;28;20437;-77
2021/09/28 05:40:18;;;;;;;0.40;0.20;;;10.60;99.90;;;;;;5015251;28;20397;-77
2021/09/28 05:42:45;;;;;;;0.40;0.20;;;10.70;99.90;;;;;;5014824;28;20868;-77
2021/09/28 05:45:11;;;;;;;0.40;0.20;;;10.70;99.90;;;;;;5032929;28;20774;-76
2021/09/28 05:47:37;;;;;;;0.40;0.30;;;10.70;99.90;;;;;;5032550;28;20475;-76
2021/09/28 05:50:05;;;;;;;2.00;0.90;;;10.70;99.90;;;;;;5032771;28;20419;-76
2021/09/28 05:52:30;;;;;;;0.40;0.20;;;10.70;99.90;;;;;;5032444;28;20387;-76
2021/09/28 05:54:56;;;;;;;0.40;0.30;;;10.70;99.90;;;;;;5040398;28;20404;-76
2021/09/28 05:57:23;;;;;;;0.40;0.20;;;10.70;99.90;;;;;;5048422;28;20986;-76
2021/09/28 05:59:49;;;;;;;0.40;0.40;;;10.60;99.90;;;;;;5045150;28;20722;-75
2021/09/28 06:02:17;;;;;;;0.40;0.20;;;10.50;99.90;;;;;;5031533;28;20397;-77
2021/09/28 06:04:43;;;;;;;1.00;0.43;;;10.50;99.90;;;;;;5033843;28;20750;-78
2021/09/28 06:07:09;;;;;;;0.40;0.30;;;10.70;99.90;;;;;;5049251;28;20517;-77
2021/09/28 06:09:37;;;;;;;0.40;0.30;;;10.70;99.90;;;;;;5033935;28;20511;-78
2021/09/28 06:12:08;;;;;;;0.40;0.20;;;10.60;99.90;;;;;;5031804;28;20440;-77
2021/09/28 06:14:36;;;;;;;0.40;0.20;;;10.60;99.90;;;;;;5032438;28;20377;-78
2021/09/28 06:17:02;;;;;;;0.40;0.20;;;10.60;99.90;;;;;;5047719;28;20417;-78
2021/09/28 06:19:28;;;;;;;0.40;0.30;;;10.60;99.90;;;;;;5049631;28;20389;-78
2021/09/28 06:21:55;;;;;;;0.40;0.30;;;10.60;99.90;;;;;;5044766;28;20440;-78
2021/09/28 06:24:21;;;;;;;0.40;0.30;;;10.70;99.90;;;;;;5052008;28;20386;-78
2021/09/28 06:26:47;;;;;;;0.40;0.20;;;10.60;99.90;;;;;;5051179;28;20408;-77
2021/09/28 06:29:13;;;;;;;0.40;0.20;;;10.70;99.90;;;;;;5051906;28;20378;-77
2021/09/28 06:31:41;;;;;;;0.40;0.30;;;10.80;99.90;;;;;;5051177;28;20378;-78
2021/09/28 06:34:07;;;;;;;0.40;0.20;;;10.90;99.90;;;;;;5051797;28;20421;-77
2021/09/28 06:36:33;;;;;;;0.40;0.30;;;10.90;99.90;;;;;;5032798;28;20416;-78
2021/09/28 06:38:59;;;;;;;0.40;0.40;;;11.00;99.90;;;;;;5044472;28;20405;-77
2021/09/28 06:41:27;;;;;;;0.40;0.20;;;11.00;99.90;;;;;;5046177;28;20750;-77
2021/09/28 06:43:53;;;;;;;0.40;0.20;;;11.20;99.90;;;;;;5034683;28;20495;-77
2021/09/28 06:46:18;;;;;;;1.00;0.90;;;11.20;99.90;;;;;;5031238;28;20465;-77
2021/09/28 06:48:44;;;;;;;0.52;0.52;;;11.20;99.90;;;;;;5030383;28;20462;-77
2021/09/28 06:51:10;;;;;;;0.40;0.20;;;11.20;99.90;;;;;;5031556;28;20380;-78
2021/09/28 06:53:35;;;;;;;0.40;0.20;;;11.30;99.90;;;;;;5013516;28;20383;-78
2021/09/28 06:56:01;;;;;;;0.40;0.30;;;11.40;99.90;;;;;;5013862;28;20768;-78
2021/09/28 06:58:27;;;;;;;0.40;0.30;;;11.40;99.90;;;;;;5031699;28;20387;-77
2021/09/28 07:00:52;;;;;;;0.40;0.20;;;11.50;99.90;;;;;;5030990;28;20383;-78
2021/09/28 07:03:19;;;;;;;0.40;0.30;;;11.60;99.90;;;;;;5031625;28;20379;-78
2021/09/28 07:05:45;;;;;;;0.40;0.20;;;11.50;99.90;;;;;;5013010;28;20398;-78
2021/09/28 07:08:11;;;;;;;0.40;0.20;;;11.60;99.90;;;;;;5027906;28;20806;-78
2021/09/28 07:10:37;;;;;;;0.40;0.30;;;11.70;99.90;;;;;;5051036;28;20405;-79
2021/09/28 07:13:02;;;;;;;0.40;0.30;;;11.70;99.90;;;;;;5033536;28;20393;-78
2021/09/28 07:23:23;;;;;;;0.40;0.20;;;11.80;99.90;;;;;;5320862;22;20419;-77
2021/09/28 07:37:26;;;;;;;0.40;0.20;;;12.10;99.90;;;;;;5039909;23;20527;-78
2021/09/28 07:39:52;;;;;;;0.40;0.20;;;12.20;99.90;;;;;;5027331;28;20382;-78
2021/09/28 07:42:17;;;;;;;0.40;0.20;;;12.20;99.90;;;;;;4995562;28;20398;-78
2021/09/28 07:44:43;;;;;;;0.40;0.20;;;12.30;99.90;;;;;;5013906;28;20385;-79
2021/09/28 07:47:09;;;;;;;0.40;0.30;;;12.40;99.90;;;;;;5030826;28;20402;-79
2021/09/28 07:49:34;;;;;;;0.40;0.20;;;12.40;99.90;;;;;;5013489;28;20395;-78
2021/09/28 07:52:00;;;;;;;0.40;0.20;;;12.50;99.90;;;;;;5030854;28;20434;-78
2021/09/28 07:54:26;;;;;;;0.40;0.20;;;12.50;99.90;;;;;;5018361;28;20377;-78
2021/09/28 07:56:51;;;;;;;0.50;0.50;;;12.50;99.90;;;;;;5011293;28;20421;-78
2021/09/28 07:59:17;;;;;;;0.40;0.20;;;12.60;99.90;;;;;;5010788;28;20392;-78
2021/09/28 08:01:43;;;;;;;0.40;0.20;;;12.70;99.90;;;;;;5011354;28;20416;-78
2021/09/28 08:04:08;;;;;;;0.40;0.20;;;12.80;99.90;;;;;;5011225;28;20476;-78
2021/09/28 08:06:34;;;;;;;0.40;0.20;;;12.80;99.90;;;;;;5010430;28;20404;-77
2021/09/28 08:08:59;;;;;;;0.40;0.30;;;12.90;99.90;;;;;;4993788;28;20397;-78
2021/09/28 08:14:06;;;;;;;0.40;0.30;;;13.10;99.90;;;;;;5011241;28;20861;-76
2021/09/28 08:16:34;;;;;;;0.40;0.30;;;13.20;99.90;;;;;;5010368;28;20435;-79
2021/09/28 08:30:43;;;;;;;0.50;0.40;;;13.60;99.90;;;;;;4991477;28;20386;-75
2021/09/28 08:33:09;;;;;;;0.40;0.20;;;13.60;99.90;;;;;;4991192;28;20395;-75
2021/09/28 08:35:35;;;;;;;0.40;0.20;;;13.80;99.90;;;;;;4990787;28;20397;-75
2021/09/28 08:38:01;;;;;;;0.40;0.20;;;13.70;99.90;;;;;;4991242;28;20497;-75
2021/09/28 08:40:26;;;;;;;0.40;0.30;;;13.70;99.90;;;;;;4992811;28;20442;-76
2021/09/28 08:42:55;;;;;;;0.40;0.30;;;13.70;99.90;;;;;;4994250;28;20453;-75
2021/09/28 08:45:21;;;;;;;0.40;0.28;;;13.80;99.90;;;;;;4994481;28;20871;-75
2021/09/28 08:47:46;;;;;;;0.40;0.20;;;13.80;99.90;;;;;;4994148;28;20406;-75
2021/09/28 08:50:18;;;;;;;0.40;0.25;;;13.90;99.90;;;;;;4994817;28;20497;-75
2021/09/28 08:52:47;;;;;;;0.40;0.20;;;13.90;99.90;;;;;;4993951;28;20409;-75
2021/09/28 08:55:13;;;;;;;0.40;0.20;;;13.90;99.90;;;;;;4994649;28;20458;-75
2021/09/28 08:57:39;;;;;;;0.40;0.20;;;14.00;99.90;;;;;;4993662;28;20418;-75
2021/09/28 09:00:13;;;;;;;0.40;0.30;;;14.00;99.90;;;;;;4994655;28;20406;-75
2021/09/28 09:02:41;;;;;;;0.40;0.20;;;14.20;99.90;;;;;;4993879;28;20474;-76
2021/09/28 09:05:11;;;;;;;0.40;0.30;;;14.40;99.90;;;;;;4994512;28;20390;-78
2021/09/28 09:07:37;;;;;;;0.40;0.20;;;14.60;99.90;;;;;;4993771;28;20502;-77
2021/09/28 09:10:03;;;;;;;0.40;0.30;;;14.60;99.90;;;;;;4994351;28;20481;-75
2021/09/28 09:12:33;;;;;;;0.40;0.20;;;14.70;99.90;;;;;;4994327;28;20468;-77
2021/09/28 09:15:35;;;;;;;0.40;0.30;;;14.90;99.90;;;;;;4994547;28;20386;-78
2021/09/28 09:18:03;;;;;;;0.40;0.20;;;14.80;99.90;;;;;;4953222;29;20430;-77
2021/09/28 09:20:41;;;;;;;0.40;0.20;;;14.90;99.90;;;;;;4969627;28;20406;-80
2021/09/28 09:23:12;;;;;;;0.40;0.30;;;14.80;99.90;;;;;;4994125;28;20421;-78
2021/09/28 09:25:38;;;;;;;0.40;0.30;;;14.60;99.90;;;;;;4975745;28;20414;-78
2021/09/28 09:28:21;;;;;;;0.40;0.20;;;14.70;99.90;;;;;;4994300;28;20390;-79
2021/09/28 09:30:47;;;;;;;0.40;0.20;;;14.80;99.90;;;;;;4993659;28;20803;-79
2021/09/28 09:33:13;;;;;;;0.40;0.20;;;14.80;99.90;;;;;;4993883;28;20410;-79
2021/09/28 09:35:39;;;;;;;0.40;0.20;;;15.00;99.90;;;;;;4993383;28;20418;-79
2021/09/28 09:38:07;;;;;;;0.40;0.20;;;15.10;99.90;;;;;;4993808;28;20448;-78
2021/09/28 09:40:34;;;;;;;0.40;0.30;;;15.00;99.90;;;;;;4993496;28;20441;-78
2021/09/28 09:43:00;;;;;;;0.40;0.20;;;15.20;99.90;;;;;;4993865;28;20394;-81
2021/09/28 09:45:26;;;;;;;0.40;0.20;;;15.20;99.90;;;;;;4983069;28;20483;-80
2021/09/28 09:47:52;;;;;;;0.40;0.20;;;15.20;99.90;;;;;;4956343;28;20829;-82
2021/09/28 09:50:20;;;;;;;0.40;0.30;;;15.10;99.90;;;;;;4974391;28;20408;-81
2021/09/28 09:53:15;;;;;;;0.40;0.30;;;15.40;99.90;;;;;;4972533;28;20391;-81
2021/09/28 09:55:42;;;;;;;0.40;0.30;;;15.50;99.90;;;;;;4957249;28;20452;-77
2021/09/28 09:58:08;;;;;;;0.40;0.20;;;15.70;99.90;;;;;;4973686;28;20892;-81
2021/09/28 10:00:34;;;;;;;0.40;0.30;;;15.60;99.90;;;;;;4974053;28;20384;-81
2021/09/28 10:03:00;;;;;;;0.50;0.50;;;15.70;99.90;;;;;;4973751;28;20433;-81
2021/09/28 10:05:26;;;;;;;0.40;0.30;;;15.90;99.90;;;;;;4956627;28;20487;-79
2021/09/28 10:07:52;;;;;;;0.40;0.30;;;15.90;99.90;;;;;;4973274;28;20397;-79
2021/09/28 10:10:19;;;;;;;0.40;0.30;;;15.80;99.90;;;;;;4973837;28;20386;-78
2021/09/28 10:12:44;;;;;;;0.40;0.30;;;16.00;99.90;;;;;;4973239;28;20408;-78
2021/09/28 10:15:14;;;;;;;0.40;0.30;;;16.10;99.90;;;;;;4973730;28;20396;-77
2021/09/28 10:17:43;;;;;;;0.40;0.20;;;16.30;99.90;;;;;;4972875;28;20406;-76
2021/09/28 10:20:24;;;;;;;0.40;0.30;;;16.30;99.90;;;;;;4973320;28;20872;-76
2021/09/28 10:22:53;;;;;;;0.40;0.30;;;16.40;99.90;;;;;;4973136;28;20463;-76
2021/09/28 10:25:21;;;;;;;0.40;0.30;;;16.40;99.90;;;;;;4973295;28;20420;-76
2021/09/28 10:27:47;;;;;;;0.40;0.30;;;16.50;99.90;;;;;;4972607;28;20416;-75
2021/09/28 10:30:31;;;;;;;0.40;0.20;;;16.40;99.90;;;;;;4973025;28;20976;-76
2021/09/28 10:32:58;;;;;;;0.40;0.30;;;16.50;99.90;;;;;;4972805;28;20395;-76
2021/09/28 10:35:24;;;;;;;0.40;0.30;;;16.50;99.90;;;;;;4973368;28;20553;-77
2021/09/28 10:37:54;;;;;;;0.40;0.30;;;16.90;99.90;;;;;;4972732;28;20512;-73
2021/09/28 10:40:20;;;;;;;0.40;0.30;;;16.70;99.90;;;;;;4973284;28;20389;-76
2021/09/28 10:42:53;;;;;;;0.40;0.20;;;16.40;99.90;;;;;;4972882;28;20399;-76
2021/09/28 10:45:39;;;;;;;0.40;0.20;;;16.80;99.90;;;;;;4982564;28;20397;-76
2021/09/28 10:48:07;;;;;;;0.40;0.30;;;17.30;99.90;;;;;;4985390;28;20413;-76
2021/09/28 10:50:41;;;;;;;0.60;0.50;;;17.30;99.90;;;;;;4992851;28;20405;-74
2021/09/28 10:53:20;;;;;;;0.40;0.30;;;17.60;99.90;;;;;;4992513;28;20736;-73
2021/09/28 10:56:00;;;;;;;0.40;0.30;;;17.50;99.90;;;;;;4991937;28;20398;-73
2021/09/28 10:58:27;;;;;;;0.40;0.20;;;17.40;99.90;;;;;;4992371;28;20410;-73
2021/09/28 11:00:56;;;;;;;1.10;0.60;;;16.80;99.90;;;;;;4991859;28;20394;-73
2021/09/28 11:03:40;;;;;;;0.40;0.30;;;17.00;99.90;;;;;;4992212;28;20402;-73
2021/09/28 11:06:07;;;;;;;0.50;0.40;;;17.10;99.90;;;;;;4992237;28;20482;-73
2021/09/28 11:08:36;;;;;;;0.40;0.30;;;17.30;99.90;;;;;;4992094;28;20401;-73
2021/09/28 11:11:08;;;;;;;0.40;0.20;;;17.40;99.90;;;;;;4991733;28;20398;-74
2021/09/28 11:13:36;;;;;;;0.50;0.50;;;17.60;99.90;;;;;;4991869;28;20398;-73
2021/09/28 11:16:05;;;;;;;0.47;0.32;;;17.80;99.90;;;;;;4991424;28;20406;-73
2021/09/28 11:18:31;;;;;;;0.40;0.20;;;18.20;99.90;;;;;;4991986;28;20398;-73
2021/09/28 11:21:09;;;;;;;0.40;0.20;;;18.50;99.90;;;;;;4991303;28;20391;-73
2021/09/28 11:23:35;;;;;;;0.40;0.20;;;19.00;99.90;;;;;;4992035;28;20434;-73
2021/09/28 11:26:01;;;;;;;0.40;0.30;;;19.10;98.60;;;;;;4991213;28;20422;-73
2021/09/28 11:28:26;;;;;;;0.40;0.20;;;18.50;98.80;;;;;;4992125;28;20410;-73
2021/09/28 11:30:55;;;;;;;0.40;0.30;;;18.60;99.90;;;;;;4991012;28;20390;-74
2021/09/28 11:33:21;;;;;;;0.40;0.20;;;19.20;99.90;;;;;;4991818;28;20430;-75
2021/09/28 11:36:17;;;;;;;0.40;0.20;;;19.10;98.40;;;;;;4991174;28;20852;-76
2021/09/28 11:38:45;;;;;;;0.40;0.40;;;19.10;97.40;;;;;;4991214;28;20410;-73
2021/09/28 11:41:13;;;;;;;0.40;0.20;;;19.00;95.90;;;;;;4991506;28;20401;-74
2021/09/28 11:43:41;;;;;;;0.40;0.20;;;19.20;98.50;;;;;;4991834;28;20383;-73
2021/09/28 11:46:12;;;;;;;0.40;0.20;;;19.70;96.30;;;;;;4975858;28;20491;-72
2021/09/28 11:48:43;;;;;;;0.40;0.30;;;19.90;96.30;;;;;;4972254;28;20396;-74
2021/09/28 11:51:15;;;;;;;0.40;0.30;;;20.00;95.40;;;;;;4972171;28;20399;-72
2021/09/28 11:53:43;;;;;;;0.40;0.20;;;20.10;94.60;;;;;;4972410;28;20435;-72
2021/09/28 11:56:09;;;;;;;0.40;0.20;;;20.20;95.60;;;;;;4971809;28;20435;-72
2021/09/28 11:58:36;;;;;;;0.40;0.20;;;20.00;94.10;;;;;;4972339;28;20404;-72
2021/09/28 12:01:06;;;;;;;0.40;0.30;;;19.40;94.20;;;;;;4971544;28;20396;-72
2021/09/28 12:03:34;;;;;;;0.40;0.30;;;19.90;96.00;;;;;;4972230;28;20989;-72
2021/09/28 12:06:22;;;;;;;0.40;0.20;;;20.20;96.50;;;;;;4971596;28;20384;-72
2021/09/28 12:08:48;;;;;;;0.40;0.30;;;19.80;95.20;;;;;;4971548;28;20881;-72
2021/09/28 12:11:13;;;;;;;0.40;0.20;;;19.20;97.40;;;;;;4971921;28;20392;-72
2021/09/28 12:13:48;;;;;;;0.40;0.30;;;19.80;97.50;;;;;;4972200;28;20442;-73
2021/09/28 12:16:18;;;;;;;0.40;0.30;;;20.00;96.90;;;;;;4974400;28;20470;-72
2021/09/28 12:18:44;;;;;;;0.40;0.20;;;19.90;97.90;;;;;;4975575;28;20422;-72
2021/09/28 12:21:13;;;;;;;1.90;0.50;;;20.40;94.20;;;;;;4975785;28;20388;-71
2021/09/28 12:23:39;;;;;;;0.40;0.20;;;20.40;93.80;;;;;;4976044;28;20400;-71
2021/09/28 12:26:19;;;;;;;0.40;0.30;;;19.20;95.20;;;;;;4974700;28;20416;-71
2021/09/28 12:28:45;;;;;;;0.40;0.22;;;19.80;95.80;;;;;;4975327;28;20380;-72
2021/09/28 12:31:11;;;;;;;0.40;0.30;;;19.90;95.30;;;;;;4975967;28;20479;-72
2021/09/28 12:33:40;;;;;;;0.40;0.30;;;19.40;96.00;;;;;;4958398;28;20443;-72
2021/09/28 12:36:05;;;;;;;0.40;0.30;;;19.60;95.90;;;;;;4975092;28;20399;-71
2021/09/28 12:38:31;;;;;;;0.40;0.20;;;19.40;95.70;;;;;;4975311;28;20487;-72
2021/09/28 12:41:08;;;;;;;0.40;0.35;;;19.20;96.20;;;;;;4974794;28;20392;-72
2021/09/28 12:43:35;;;;;;;0.40;0.20;;;19.40;96.70;;;;;;4975335;28;20407;-71
2021/09/28 12:46:05;;;;;;;0.40;0.30;;;19.20;96.30;;;;;;4989571;28;20394;-71
2021/09/28 12:48:42;;;;;;;0.40;0.20;;;19.60;96.20;;;;;;4994865;28;20391;-72
2021/09/28 12:51:18;;;;;;;0.40;0.30;;;19.60;95.80;;;;;;4994122;28;20879;-72
2021/09/28 12:53:45;;;;;;;0.40;0.30;;;19.40;96.50;;;;;;4994707;28;20387;-72
2021/09/28 12:56:11;;;;;;;0.40;0.20;;;19.00;96.90;;;;;;4994532;28;20437;-73
2021/09/28 12:58:37;;;;;;;0.40;0.20;;;19.00;96.80;;;;;;4994560;28;20411;-73
2021/09/28 13:01:03;;;;;;;0.40;0.20;;;19.10;98.00;;;;;;4993661;28;20390;-73
2021/09/28 13:03:30;;;;;;;0.40;0.20;;;19.30;96.50;;;;;;4976989;28;20441;-73
2021/09/28 13:06:09;;;;;;;0.40;0.30;;;19.40;99.00;;;;;;4993851;28;20383;-72
2021/09/28 13:08:36;;;;;;;0.40;0.30;;;19.20;96.70;;;;;;4994599;28;20445;-72
2021/09/28 13:11:04;;;;;;;0.40;0.30;;;18.90;97.50;;;;;;4993576;28;20406;-72
2021/09/28 13:13:32;;;;;;;0.40;0.22;;;19.00;98.10;;;;;;4994436;28;20441;-73
2021/09/28 13:15:58;;;;;;;0.40;0.20;;;19.00;98.00;;;;;;4993590;28;20391;-73
2021/09/28 13:18:24;;;;;;;0.40;0.30;;;19.30;97.90;;;;;;4994418;28;20383;-71
2021/09/28 13:20:51;;;;;;;0.40;0.30;;;19.20;97.40;;;;;;4993638;28;20378;-72
2021/09/28 13:23:17;;;;;;;0.40;0.30;;;19.10;98.30;;;;;;4994214;28;20786;-72